Latest Coastal Weather Observations for Bairnsdale

IDV60701

Issued at 4:55 pm EST Wednesday 1 October 2014 (issued every 10 minutes, with the page automatically refreshed every 10 minutes)

About coastal observations | Map of coastal stations | Coastal observations for VIC | Marine services | Other Formats
Station Details ID: 085279 Name: BAIRNSDALE AIRPORT Lat: -37.88 Lon: 147.57 Height: 49.4 m
Data from the previous 72 hours. | See also: Recent months at Bairnsdale
Date/Time
EST
Temp

°C
Wind Pressure Rain
since 9am
mm
Weather Cloud Vis
km
Sea
Height
m
Swell
Dir
 
Speed
knots
Gust
knots
hPa Trend Height
m
Period
s
Dir
01/04:30pm 13.2 WSW 14 20 1021.9 - 0.8 - - 10 - - - -
01/04:00pm 14.5 W 13 18 1021.4 - 0.8 - Partly cloudy 10 - - - -
01/03:30pm 14.8 W 14 20 1021.4 - 0.8 - Partly cloudy 10 - - - -
01/03:00pm 15.6 WSW 15 20 1021.2 - 0.8 - Mostly clear 10 - - - -
01/02:30pm 15.0 WSW 15 20 1021.0 - 0.8 - Partly cloudy 10 - - - -
01/02:00pm 16.0 WSW 14 21 1021.5 - 0.8 - Partly cloudy 10 - - - -
01/01:30pm 15.4 WNW 15 19 1021.3 - 0.8 - Partly cloudy 10 - - - -
01/01:00pm 15.5 W 13 21 1021.4 - 0.8 - Partly cloudy 10 - - - -
01/12:30pm 14.6 W 13 21 1021.6 - 0.8 - Partly cloudy 10 - - - -
01/12:00pm 12.0 W 14 21 1021.8 - 0.8 Recent precip. Mostly cloudy 10 - - - -
01/11:43am 11.1 WSW 15 20 1021.8 - 0.8 - Partly cloudy 10 - - - -
01/11:31am 9.1 SW 19 29 1022.1 - 0.8 - Partly cloudy 5 - - - -
01/11:30am 9.0 SW 20 29 1022.2 - 0.8 - Partly cloudy 4 - - - -
01/11:25am 9.0 SW 20 30 1022.3 - 0.6 - Partly cloudy 4 - - - -
01/11:24am 9.1 SW 21 30 1022.2 - 0.6 - Partly cloudy 5 - - - -
01/11:14am 12.8 WSW 17 27 1021.6 - 0.0 - Partly cloudy 10 - - - -
01/11:00am 13.3 W 15 24 1021.4 - 0.0 - Partly cloudy 10 - - - -
01/10:30am 13.6 W 16 22 1021.5 - 0.0 - Partly cloudy 10 - - - -
01/10:00am 12.3 WSW 17 25 1021.5 - 0.0 - Partly cloudy 10 - - - -
01/09:30am 12.2 W 18 27 1021.2 - 0.0 - Partly cloudy 10 - - - -
01/09:21am 11.7 W 17 27 1021.0 - 0.0 - Partly cloudy 10 - - - -
01/09:00am 11.9 WSW 17 25 1020.7 - 4.0 - Partly cloudy 10 - - - -
01/08:30am 10.9 W 17 26 1020.1 - 4.0 - - 10 - - - -
01/08:19am 10.5 W 15 25 1019.9 - 4.0 - - 10 - - - -
01/08:00am 9.9 W 15 24 1019.8 - 4.0 - - 10 - - - -
01/07:30am 8.4 W 13 20 1019.1 - 4.0 - - 10 - - - -
01/07:00am 7.4 W 12 18 1018.8 - 4.0 - Partly cloudy 10 - - - -
01/06:30am 6.4 W 12 19 1018.2 - 4.0 - - 10 - - - -
01/06:00am 5.1 WNW 8 9 1017.8 - 4.0 - Mostly cloudy 10 - - - -
01/05:30am 5.8 WNW 11 14 1017.3 - 4.0 - Partly cloudy 10 - - - -
01/05:00am 6.2 W 13 20 1016.7 - 4.0 - Partly cloudy 10 - - - -
01/04:30am 6.7 W 16 23 1015.9 - 4.0 - - 10 - - - -
01/04:19am 6.9 W 17 28 1015.6 - 4.0 - - 10 - - - -
01/04:00am 6.6 WNW 14 19 1015.2 - 4.0 - Partly cloudy 10 - - - -
01/03:30am 6.4 W 16 23 1014.8 - 4.0 - Partly cloudy 10 - - - -
01/03:00am 6.5 W 17 24 1014.5 - 4.0 - Partly cloudy 10 - - - -
01/02:30am 6.9 W 19 30 1013.8 - 4.0 - Partly cloudy 10 - - - -
01/02:02am 6.7 W 19 29 1013.6 - 4.0 - Partly cloudy 10 - - - -
01/02:00am 6.7 W 20 29 1013.6 - 4.0 - Partly cloudy 10 - - - -
01/01:30am 7.0 W 23 33 1012.9 - 4.0 - Partly cloudy 10 - - - -
01/01:09am 6.5 W 17 31 1013.3 - 4.0 - Partly cloudy 10 - - - -
01/01:00am 6.0 W 17 26 1013.4 - 4.0 - Partly cloudy 10 - - - -
01/12:31am 8.6 W 21 31 1013.1 - 3.8 - Partly cloudy 10 - - - -
01/12:30am 8.6 W 22 31 1013.1 - 3.8 - Partly cloudy 10 - - - -
01/12:00am 8.0 W 11 15 1012.3 - 3.8 - - 10 - - - -
 
Date/Time
EST
Temp

°C
Wind Pressure Rain
since 9am
mm
Weather Cloud Vis
km
Sea
Height
m
Swell
Dir
 
Speed
knots
Gust
knots
hPa Trend Height
m
Period
s
Dir
30/11:30pm 7.9 W 11 15 1011.9 - 3.8 - - 10 - - - -
30/11:00pm 8.5 W 13 16 1011.7 - 3.8 - - 10 - - - -
30/10:30pm 8.8 W 14 18 1011.5 - 3.6 - - 10 - - - -
30/10:00pm 9.0 W 15 19 1011.3 - 3.6 - - 10 - - - -
30/09:30pm 8.6 WNW 10 15 1011.1 - 3.6 - Partly cloudy 10 - - - -
30/09:00pm 9.3 WNW 11 17 1011.3 - 3.6 - Cloudy 10 - - - -
30/08:37pm 9.1 W 15 25 1010.7 - 3.6 - Partly cloudy 10 - - - -
30/08:30pm 9.2 W 17 25 1010.9 - 3.6 - Partly cloudy 10 - - - -
30/08:00pm 8.9 W 17 25 1010.0 - 3.6 - Partly cloudy 10 - - - -
30/07:30pm 7.8 W 21 32 1008.6 - 3.6 - Partly cloudy 7 - - - -
30/07:00pm 8.6 WSW 27 40 1008.3 - 2.8 - Partly cloudy 10 - - - -
30/06:30pm 8.7 WSW 33 49 1007.3 - 2.8 - Partly cloudy - - - - -
30/06:00pm 9.6 WSW 31 45 1006.6 - 1.2 Rain Cloudy 4 - - - -
30/05:51pm 10.2 WSW 31 41 1005.5 - 0.8 - Partly cloudy 3 - - - -
30/05:50pm 10.2 WSW 29 37 1005.3 - 0.8 - Partly cloudy 3 - - - -
30/05:46pm 10.3 WSW 40 51 1005.3 - 0.6 - Partly cloudy 3 - - - -
30/05:44pm 10.5 WSW 43 49 1005.2 - 0.4 - Partly cloudy 4 - - - -
30/05:42pm 12.2 WSW 30 44 1005.1 - 0.2 - Partly cloudy 5 - - - -
30/05:30pm 14.6 WSW 26 39 1004.3 - 0.0 - Partly cloudy 10 - - - -
30/05:18pm 18.2 WSW 19 31 1002.8 - 0.0 - Partly cloudy 10 - - - -
30/05:17pm 21.1 W 17 22 1003.4 - 0.0 - Partly cloudy 10 - - - -
30/05:00pm 21.6 NNW 17 29 1000.9 - 0.0 - Partly cloudy 10 - - - -
30/04:30pm 22.5 NNW 18 28 1000.8 - 0.0 - Partly cloudy 10 - - - -
30/04:24pm 22.8 NNW 16 26 1000.4 - 0.0 - Partly cloudy 10 - - - -
30/04:00pm 22.2 NNW 19 27 1001.5 - 0.0 - - 10 - - - -
30/03:30pm 23.2 NNW 19 29 1001.1 - 0.0 - - 10 - - - -
30/03:22pm 23.2 NNW 19 29 1001.1 - 0.0 - - 10 - - - -
30/03:00pm 23.7 NNW 18 27 1001.3 - 0.0 - Mostly clear 10 - - - -
30/02:30pm 24.3 WNW 13 20 1001.7 - 0.0 - Partly cloudy 10 - - - -
30/02:00pm 22.9 W 11 17 1002.7 - 0.0 - Partly cloudy 10 - - - -
30/01:32pm 23.8 NW 15 25 1002.9 - 0.0 - Partly cloudy 10 - - - -
30/01:30pm 23.9 NW 16 25 1002.9 - 0.0 - Partly cloudy 10 - - - -
30/01:00pm 24.8 NNW 14 21 1002.4 - 0.0 - Partly cloudy 10 - - - -
30/12:30pm 23.9 W 6 11 1003.7 - 0.0 - Partly cloudy 10 - - - -
30/12:00pm 23.4 NW 5 10 1004.5 - 0.0 - Partly cloudy 10 - - - -
30/11:30am 22.1 S 6 10 1005.4 - 0.0 - - 10 - - - -
30/11:00am 22.0 SW 7 9 1006.2 - 0.0 - - 10 - - - -
30/10:30am 21.5 SW 8 11 1006.8 - 0.0 - Partly cloudy 10 - - - -
30/10:00am 20.5 SW 10 14 1007.4 - 0.0 - - 10 - - - -
30/09:30am 22.1 NW 12 18 1007.9 - 0.0 - - 10 - - - -
30/09:00am 21.0 NNW 14 19 1007.9 - 0.0 - - 10 - - - -
30/08:30am 19.0 N 6 11 1008.1 - 0.0 - - 10 - - - -
30/08:00am 15.1 NE 3 5 1008.4 - 0.0 - - 10 - - - -
30/07:30am 12.0 NE 3 6 1008.5 - 0.0 - - 10 - - - -
30/07:00am 10.1 NNE 6 9 1008.6 - 0.0 - - 10 - - - -
30/06:30am 9.3 NE 6 7 1009.0 - 0.0 - - 10 - - - -
30/06:00am 5.8 NE 4 5 1009.1 - 0.0 - - 10 - - - -
30/05:30am 6.5 CALM 0 0 1009.1 - 0.0 - - 10 - - - -
30/05:00am 7.2 NNE 5 6 1009.1 - 0.0 - - 10 - - - -
30/04:30am 6.8 N 4 5 1009.1 - 0.0 - - 10 - - - -
30/04:00am 5.7 N 5 6 1009.4 - 0.0 - - 10 - - - -
30/03:30am 6.5 N 5 7 1009.8 - 0.0 - - 10 - - - -
30/03:00am 7.1 NNW 6 8 1010.3 - 0.0 - - 10 - - - -
30/02:30am 7.2 NNW 4 6 1010.6 - 0.0 - - 10 - - - -
30/02:00am 6.8 NNW 4 6 1010.9 - 0.0 - - 10 - - - -
30/01:30am 7.0 NNW 4 8 1011.2 - 0.0 - - 10 - - - -
30/01:00am 7.5 NW 7 8 1011.4 - 0.0 - - 10 - - - -
30/12:30am 7.2 NW 6 7 1011.5 - 0.0 - - 10 - - - -
30/12:00am 7.3 NW 5 7 1011.7 - 0.0 - - 10 - - - -
 
Date/Time
EST
Temp

°C
Wind Pressure Rain
since 9am
mm
Weather Cloud Vis
km
Sea
Height
m
Swell
Dir
 
Speed
knots
Gust
knots
hPa Trend Height
m
Period
s
Dir
29/11:30pm 9.2 N 3 4 1011.7 - 0.0 - - 10 - - - -
29/11:00pm 9.5 ESE 3 5 1012.0 - 0.0 - - 10 - - - -
29/10:30pm 11.0 E 6 7 1012.0 - 0.0 - - 10 - - - -
29/10:00pm 11.2 ESE 5 7 1012.4 - 0.0 - - 10 - - - -
29/09:30pm 11.7 E 8 9 1012.8 - 0.0 - - 10 - - - -
29/09:00pm 11.8 E 7 9 1013.0 - 0.0 - - 10 - - - -
29/08:30pm 11.9 E 6 7 1013.2 - 0.0 - - 10 - - - -
29/08:00pm 12.5 E 8 9 1013.2 - 0.0 - - 10 - - - -
29/07:30pm 12.7 ENE 7 9 1013.1 - 0.0 - - 10 - - - -
29/07:00pm 13.1 ENE 8 11 1012.7 - 0.0 - - 10 - - - -
29/06:30pm 13.2 E 8 10 1012.4 - 0.0 - - 10 - - - -
29/06:00pm 14.1 E 8 10 1012.2 - 0.0 - - 10 - - - -
29/05:30pm 15.2 E 11 14 1011.8 - 0.0 - - 10 - - - -
29/05:00pm 16.2 E 10 13 1011.5 - 0.0 - - 10 - - - -
29/04:30pm 17.0 ESE 12 14 1011.0 - 0.0 - - 10 - - - -
29/04:00pm 17.7 ESE 11 14 1010.5 - 0.0 - - 10 - - - -
29/03:30pm 19.1 ESE 11 14 1010.3 - 0.0 - - 10 - - - -
29/03:00pm 21.9 E 5 7 1010.1 - 0.0 - - 10 - - - -
29/02:30pm 22.2 WNW 4 6 1010.1 - 0.0 - - 10 - - - -
29/02:00pm 21.5 N 5 7 1010.1 - 0.0 - - 10 - - - -
29/01:30pm 21.3 NW 5 8 1010.8 - 0.0 - - 10 - - - -
29/01:00pm 20.6 WNW 6 8 1011.4 - 0.0 - - 10 - - - -
29/12:30pm 21.0 NW 5 8 1011.7 - 0.0 - - 10 - - - -
29/12:00pm 19.7 WSW 6 11 1012.3 - 0.0 - - 10 - - - -
29/11:30am 19.5 SW 9 13 1012.5 - 0.0 - - 10 - - - -
29/11:00am 19.1 WSW 11 16 1012.7 - 0.0 - - 10 - - - -
29/10:30am 19.1 WSW 11 15 1012.9 - 0.0 - - 10 - - - -
29/10:00am 18.6 SW 13 17 1012.9 - 0.0 - - 10 - - - -
29/09:30am 18.1 SW 11 19 1013.0 - 0.0 - - 10 - - - -
29/09:00am 17.7 SW 12 15 1012.9 - 0.0 - - 10 - - - -
29/08:30am 16.7 SW 13 17 1012.8 - 0.0 - - 10 - - - -
29/08:00am 16.1 SW 10 13 1012.3 - 0.0 - - 10 - - - -
29/07:30am 15.1 SW 9 12 1012.0 - 0.0 - - 10 - - - -
29/07:00am 14.2 SW 7 9 1011.7 - 0.0 - - 10 - - - -
29/06:30am 11.9 N 3 6 1011.3 - 0.0 - - 10 - - - -
29/06:00am 10.7 E 5 6 1011.0 - 0.0 - - 10 - - - -
29/05:30am 12.4 NW 5 6 1010.4 - 0.0 - Partly cloudy 10 - - - -
29/05:00am 14.3 W 10 18 1009.5 - 0.0 - Cloudy 10 - - - -
29/04:30am 14.8 W 12 19 1009.1 - 0.0 - Cloudy 10 - - - -
29/04:00am 14.7 WSW 17 21 1008.8 - 0.0 - Cloudy 10 - - - -
29/03:30am 14.1 WSW 19 25 1008.7 - 0.0 - Partly cloudy 10 - - - -
29/03:00am 15.6 WSW 22 30 1008.5 - 0.0 - Cloudy 10 - - - -
29/02:37am 16.1 SW 24 34 1007.5 - 0.0 - Partly cloudy 10 - - - -
29/02:30am 16.3 SW 23 31 1007.6 - 0.0 - Partly cloudy 10 - - - -
29/02:00am 17.4 SW 18 23 1006.8 - 0.0 - Partly cloudy 10 - - - -
29/01:42am 20.0 SW 25 40 1006.3 - 0.0 - - 10 - - - -
29/01:40am 22.0 WSW 22 31 1006.4 - 0.0 - - 10 - - - -
29/01:38am 23.5 WNW 17 28 1006.1 - 0.0 - - 10 - - - -
29/01:30am 23.0 WNW 15 22 1005.1 - 0.0 - - 10 - - - -
29/01:00am 22.4 WNW 13 18 1004.4 - 0.0 - - 10 - - - -
29/12:30am 22.1 WNW 12 15 1004.3 - 0.0 - - 10 - - - -
29/12:00am 23.0 NNW 17 25 1003.8 - 0.0 - - 10 - - - -
 
Date/Time
EST
Temp

°C
Wind Pressure Rain
since 9am
mm
Weather Cloud Vis
km
Sea
Height
m
Swell
Dir
 
Speed
knots
Gust
knots
hPa Trend Height
m
Period
s
Dir
28/11:30pm 22.6 NW 16 23 1004.2 - 0.0 - - 10 - - - -
28/11:00pm 22.9 NW 15 26 1004.8 - 0.0 - - 10 - - - -
28/10:44pm 23.6 NW 18 28 1004.8 - 0.0 - - 10 - - - -
28/10:30pm 22.9 NW 15 22 1004.8 - 0.0 - - 10 - - - -
28/10:00pm 22.4 NW 11 17 1005.3 - 0.0 - - 10 - - - -
28/09:30pm 21.4 NNW 9 13 1005.5 - 0.0 - - 10 - - - -
28/09:00pm 21.8 NNW 9 13 1006.2 - 0.0 - Mostly cloudy 10 - - - -
28/08:30pm 22.7 NW 11 15 1006.5 - 0.0 - - 10 - - - -
28/08:00pm 22.9 N 5 10 1006.4 - 0.0 - - 10 - - - -
28/07:30pm 23.2 N 9 15 1006.1 - 0.0 - - 10 - - - -
28/07:00pm 22.6 NNW 10 15 1006.7 - 0.0 - - 10 - - - -
28/06:30pm 23.2 NNW 13 20 1006.6 - 0.0 - - 10 - - - -
28/06:00pm 22.2 NNW 7 10 1006.7 - 0.0 - Cloudy 10 - - - -
28/05:30pm 22.1 NNW 7 10 1006.7 - 0.0 - - 10 - - - -
28/05:00pm 24.2 NNW 13 20 1006.7 - 0.0 - - 10 - - - -

Other Formats:

Comma delimited format used in spreadsheet applications
http://www.bom.gov.au/fwo/IDV60701/IDV60701.94912.axf

JavaScript Object Notation format (JSON) in row-major order
http://www.bom.gov.au/fwo/IDV60701/IDV60701.94912.json